sensor_id;sensor_type;location;lat;lon;timestamp;pressure;altitude;pressure_sealevel;temperature;humidity
35908;BME280;22003;50.320;8.054;2023-04-16T04:02:32;99893.84;;;7.21;100.00
35908;BME280;22003;50.320;8.054;2023-04-16T04:04:57;99866.06;;;7.15;100.00
35908;BME280;22003;50.320;8.054;2023-04-16T04:07:23;99866.34;;;7.39;100.00
35908;BME280;22003;50.320;8.054;2023-04-16T04:09:48;99872.09;;;7.46;100.00
35908;BME280;22003;50.320;8.054;2023-04-16T04:12:13;99835.88;;;7.21;100.00
35908;BME280;22003;50.320;8.054;2023-04-16T04:14:38;99888.00;;;7.30;100.00
35908;BME280;22003;50.320;8.054;2023-04-16T04:17:07;99888.78;;;7.18;100.00
35908;BME280;22003;50.320;8.054;2023-04-16T04:19:33;99878.50;;;7.13;100.00
35908;BME280;22003;50.320;8.054;2023-04-16T04:21:58;99865.72;;;6.79;100.00
35908;BME280;22003;50.320;8.054;2023-04-16T04:24:24;99898.34;;;6.91;100.00
35908;BME280;22003;50.320;8.054;2023-04-16T04:26:49;99916.91;;;6.89;100.00
35908;BME280;22003;50.320;8.054;2023-04-16T04:29:15;99912.88;;;7.12;100.00
35908;BME280;22003;50.320;8.054;2023-04-16T04:31:40;99913.25;;;7.06;100.00
35908;BME280;22003;50.320;8.054;2023-04-16T04:34:05;99920.63;;;6.85;100.00
35908;BME280;22003;50.320;8.054;2023-04-16T04:36:31;99900.78;;;6.79;100.00
35908;BME280;22003;50.320;8.054;2023-04-16T04:38:56;99916.06;;;6.88;100.00
35908;BME280;22003;50.320;8.054;2023-04-16T04:41:21;99918.84;;;6.85;100.00
35908;BME280;22003;50.320;8.054;2023-04-16T04:43:46;99927.88;;;6.81;100.00
35908;BME280;22003;50.320;8.054;2023-04-16T04:46:12;99909.31;;;6.69;100.00
35908;BME280;22003;50.320;8.054;2023-04-16T04:48:37;99936.03;;;6.77;100.00
35908;BME280;22003;50.320;8.054;2023-04-16T04:51:02;99884.94;;;6.51;100.00
35908;BME280;22003;50.320;8.054;2023-04-16T04:53:28;99906.88;;;6.66;100.00
35908;BME280;22003;50.320;8.054;2023-04-16T04:55:54;99902.44;;;6.52;100.00
35908;BME280;22003;50.320;8.054;2023-04-16T04:58:19;99936.25;;;6.88;100.00
35908;BME280;22003;50.320;8.054;2023-04-16T05:00:44;99946.06;;;7.00;100.00
35908;BME280;22003;50.320;8.054;2023-04-16T05:03:10;99953.97;;;7.14;100.00
35908;BME280;22003;50.320;8.054;2023-04-16T05:05:37;99963.63;;;6.85;100.00
35908;BME280;22003;50.320;8.054;2023-04-16T05:08:03;99953.09;;;6.85;100.00
35908;BME280;22003;50.320;8.054;2023-04-16T05:10:28;99962.91;;;7.26;100.00
35908;BME280;22003;50.320;8.054;2023-04-16T05:12:53;99947.75;;;7.01;100.00
35908;BME280;22003;50.320;8.054;2023-04-16T05:15:18;99966.03;;;7.19;100.00
35908;BME280;22003;50.320;8.054;2023-04-16T05:17:44;99958.66;;;7.09;100.00
35908;BME280;22003;50.320;8.054;2023-04-16T05:20:10;99965.72;;;7.09;100.00
35908;BME280;22003;50.320;8.054;2023-04-16T05:22:35;99958.34;;;7.44;100.00
35908;BME280;22003;50.320;8.054;2023-04-16T05:25:00;99926.03;;;7.12;100.00
35908;BME280;22003;50.320;8.054;2023-04-16T05:27:26;99930.34;;;6.99;100.00
35908;BME280;22003;50.320;8.054;2023-04-16T05:29:51;99948.25;;;7.22;100.00
35908;BME280;22003;50.320;8.054;2023-04-16T05:32:16;99975.53;;;7.35;100.00
35908;BME280;22003;50.320;8.054;2023-04-16T05:34:41;99975.53;;;7.35;100.00
35908;BME280;22003;50.320;8.054;2023-04-16T05:37:07;99926.91;;;6.82;100.00
35908;BME280;22003;50.320;8.054;2023-04-16T05:39:32;99977.69;;;7.43;100.00
35908;BME280;22003;50.320;8.054;2023-04-16T05:41:57;99952.84;;;7.19;100.00
35908;BME280;22003;50.320;8.054;2023-04-16T05:44:22;99958.41;;;7.28;100.00
35908;BME280;22003;50.320;8.054;2023-04-16T05:46:48;99987.22;;;7.60;100.00
35908;BME280;22003;50.320;8.054;2023-04-16T05:49:13;99991.91;;;7.26;100.00
35908;BME280;22003;50.320;8.054;2023-04-16T05:51:38;99957.94;;;6.77;100.00
35908;BME280;22003;50.320;8.054;2023-04-16T05:54:03;99993.97;;;7.21;100.00
35908;BME280;22003;50.320;8.054;2023-04-16T05:56:29;99997.91;;;7.00;100.00
35908;BME280;22003;50.320;8.054;2023-04-16T05:58:54;99987.56;;;7.25;100.00
35908;BME280;22003;50.320;8.054;2023-04-16T06:01:20;100008.34;;;7.15;100.00
35908;BME280;22003;50.320;8.054;2023-04-16T06:03:45;100007.13;;;7.07;100.00
35908;BME280;22003;50.320;8.054;2023-04-16T06:06:10;100000.19;;;7.20;100.00
35908;BME280;22003;50.320;8.054;2023-04-16T06:08:36;99999.59;;;7.15;100.00
35908;BME280;22003;50.320;8.054;2023-04-16T06:11:02;99999.59;;;7.15;100.00
35908;BME280;22003;50.320;8.054;2023-04-16T06:13:27;100011.66;;;7.19;100.00
35908;BME280;22003;50.320;8.054;2023-04-16T06:15:52;100003.28;;;7.12;100.00
35908;BME280;22003;50.320;8.054;2023-04-16T06:18:17;100014.25;;;7.05;100.00
35908;BME280;22003;50.320;8.054;2023-04-16T06:20:43;99981.13;;;6.86;100.00
35908;BME280;22003;50.320;8.054;2023-04-16T06:23:08;99974.69;;;6.76;100.00
35908;BME280;22003;50.320;8.054;2023-04-16T06:25:34;99977.84;;;6.97;100.00
35908;BME280;22003;50.320;8.054;2023-04-16T06:27:59;100010.81;;;7.19;100.00
35908;BME280;22003;50.320;8.054;2023-04-16T06:30:24;99993.31;;;7.18;100.00
35908;BME280;22003;50.320;8.054;2023-04-16T06:32:50;99973.25;;;7.15;100.00
35908;BME280;22003;50.320;8.054;2023-04-16T06:35:15;100013.38;;;7.34;100.00
35908;BME280;22003;50.320;8.054;2023-04-16T06:37:40;99985.34;;;7.33;100.00
35908;BME280;22003;50.320;8.054;2023-04-16T06:40:06;100009.97;;;7.18;100.00
35908;BME280;22003;50.320;8.054;2023-04-16T06:42:32;100018.19;;;7.42;100.00
35908;BME280;22003;50.320;8.054;2023-04-16T06:44:57;100012.53;;;7.34;100.00
35908;BME280;22003;50.320;8.054;2023-04-16T06:47:22;100022.44;;;7.45;100.00
35908;BME280;22003;50.320;8.054;2023-04-16T06:49:47;100029.50;;;7.73;100.00
35908;BME280;22003;50.320;8.054;2023-04-16T06:52:13;100015.09;;;7.50;100.00
35908;BME280;22003;50.320;8.054;2023-04-16T06:54:38;100006.41;;;7.48;100.00
35908;BME280;22003;50.320;8.054;2023-04-16T06:57:03;100008.69;;;7.39;100.00
35908;BME280;22003;50.320;8.054;2023-04-16T06:59:28;100032.13;;;7.87;100.00
35908;BME280;22003;50.320;8.054;2023-04-16T07:01:54;100026.56;;;8.06;100.00
35908;BME280;22003;50.320;8.054;2023-04-16T07:04:19;100032.00;;;8.03;100.00
35908;BME280;22003;50.320;8.054;2023-04-16T07:06:45;100035.78;;;8.13;100.00
35908;BME280;22003;50.320;8.054;2023-04-16T07:09:10;100037.75;;;8.09;100.00
35908;BME280;22003;50.320;8.054;2023-04-16T07:11:35;100031.94;;;8.31;100.00
35908;BME280;22003;50.320;8.054;2023-04-16T07:14:01;100028.81;;;7.98;100.00
35908;BME280;22003;50.320;8.054;2023-04-16T07:16:26;100016.34;;;8.14;100.00
35908;BME280;22003;50.320;8.054;2023-04-16T07:18:51;100039.06;;;8.16;100.00
35908;BME280;22003;50.320;8.054;2023-04-16T07:21:17;100052.38;;;8.01;100.00
35908;BME280;22003;50.320;8.054;2023-04-16T07:23:42;100049.13;;;8.24;100.00
35908;BME280;22003;50.320;8.054;2023-04-16T07:26:07;100035.63;;;7.73;100.00
35908;BME280;22003;50.320;8.054;2023-04-16T07:28:32;100043.91;;;7.81;100.00
35908;BME280;22003;50.320;8.054;2023-04-16T07:30:58;99992.47;;;7.60;100.00
35908;BME280;22003;50.320;8.054;2023-04-16T07:33:23;100044.38;;;8.02;100.00
35908;BME280;22003;50.320;8.054;2023-04-16T07:35:49;100043.75;;;8.26;100.00
35908;BME280;22003;50.320;8.054;2023-04-16T07:38:15;100058.16;;;8.34;100.00
35908;BME280;22003;50.320;8.054;2023-04-16T07:40:40;100026.94;;;8.00;100.00
35908;BME280;22003;50.320;8.054;2023-04-16T07:43:05;100028.53;;;7.88;100.00
35908;BME280;22003;50.320;8.054;2023-04-16T07:45:31;100034.72;;;8.15;100.00
35908;BME280;22003;50.320;8.054;2023-04-16T07:47:56;100056.84;;;8.27;100.00
35908;BME280;22003;50.320;8.054;2023-04-16T07:50:21;100064.97;;;8.24;100.00
35908;BME280;22003;50.320;8.054;2023-04-16T07:52:46;100072.91;;;8.24;100.00
35908;BME280;22003;50.320;8.054;2023-04-16T07:55:12;100068.72;;;8.34;100.00
35908;BME280;22003;50.320;8.054;2023-04-16T07:57:37;100072.59;;;8.29;100.00
35908;BME280;22003;50.320;8.054;2023-04-16T08:00:03;100060.19;;;8.16;100.00
35908;BME280;22003;50.320;8.054;2023-04-16T08:02:29;100047.91;;;8.15;100.00
35908;BME280;22003;50.320;8.054;2023-04-16T08:04:55;100079.03;;;8.25;100.00
35908;BME280;22003;50.320;8.054;2023-04-16T08:07:20;100076.09;;;8.29;100.00
35908;BME280;22003;50.320;8.054;2023-04-16T08:09:47;100088.84;;;8.23;100.00
35908;BME280;22003;50.320;8.054;2023-04-16T08:12:13;100080.25;;;8.19;100.00
35908;BME280;22003;50.320;8.054;2023-04-16T08:14:38;100080.06;;;8.36;100.00
35908;BME280;22003;50.320;8.054;2023-04-16T08:17:05;100058.97;;;8.22;100.00
35908;BME280;22003;50.320;8.054;2023-04-16T08:19:30;100095.81;;;8.24;100.00
35908;BME280;22003;50.320;8.054;2023-04-16T08:21:55;100104.75;;;8.35;100.00
35908;BME280;22003;50.320;8.054;2023-04-16T08:24:21;100058.13;;;7.93;100.00
35908;BME280;22003;50.320;8.054;2023-04-16T08:26:46;100040.06;;;7.73;100.00
35908;BME280;22003;50.320;8.054;2023-04-16T08:29:11;100104.09;;;8.17;100.00
35908;BME280;22003;50.320;8.054;2023-04-16T08:31:37;100034.03;;;7.85;100.00
35908;BME280;22003;50.320;8.054;2023-04-16T08:34:02;100106.94;;;8.29;100.00
35908;BME280;22003;50.320;8.054;2023-04-16T08:36:27;100111.34;;;8.42;100.00
35908;BME280;22003;50.320;8.054;2023-04-16T08:38:52;100118.81;;;8.36;100.00
35908;BME280;22003;50.320;8.054;2023-04-16T08:41:20;100119.44;;;8.25;100.00
35908;BME280;22003;50.320;8.054;2023-04-16T08:43:47;100114.75;;;8.44;100.00
35908;BME280;22003;50.320;8.054;2023-04-16T08:46:15;100125.47;;;8.27;100.00
35908;BME280;22003;50.320;8.054;2023-04-16T08:48:44;100127.47;;;8.09;100.00
35908;BME280;22003;50.320;8.054;2023-04-16T08:51:12;100033.28;;;7.68;100.00
35908;BME280;22003;50.320;8.054;2023-04-16T08:53:53;100126.44;;;8.12;100.00
35908;BME280;22003;50.320;8.054;2023-04-16T08:56:23;100119.00;;;8.04;100.00
35908;BME280;22003;50.320;8.054;2023-04-16T08:58:49;100105.34;;;8.12;100.00
35908;BME280;22003;50.320;8.054;2023-04-16T09:01:16;100133.72;;;8.23;100.00
35908;BME280;22003;50.320;8.054;2023-04-16T09:03:43;100134.72;;;8.49;100.00
35908;BME280;22003;50.320;8.054;2023-04-16T09:06:10;100114.22;;;8.39;100.00
35908;BME280;22003;50.320;8.054;2023-04-16T09:08:36;100143.81;;;8.44;100.00
35908;BME280;22003;50.320;8.054;2023-04-16T09:11:02;100142.41;;;8.66;100.00
35908;BME280;22003;50.320;8.054;2023-04-16T09:13:30;100139.63;;;8.55;100.00
35908;BME280;22003;50.320;8.054;2023-04-16T09:15:55;100137.34;;;8.63;100.00
35908;BME280;22003;50.320;8.054;2023-04-16T09:18:21;100124.53;;;8.57;100.00
35908;BME280;22003;50.320;8.054;2023-04-16T09:20:48;100144.53;;;8.61;100.00
35908;BME280;22003;50.320;8.054;2023-04-16T09:23:13;100143.94;;;8.70;100.00
35908;BME280;22003;50.320;8.054;2023-04-16T09:25:39;100145.22;;;8.50;100.00
35908;BME280;22003;50.320;8.054;2023-04-16T09:28:04;100101.00;;;8.39;100.00
35908;BME280;22003;50.320;8.054;2023-04-16T09:30:32;100121.72;;;8.45;100.00
35908;BME280;22003;50.320;8.054;2023-04-16T09:33:20;100155.84;;;8.63;100.00
35908;BME280;22003;50.320;8.054;2023-04-16T09:35:50;100146.53;;;8.43;100.00
35908;BME280;22003;50.320;8.054;2023-04-16T09:38:16;100148.31;;;8.28;100.00
35908;BME280;22003;50.320;8.054;2023-04-16T09:40:41;100124.34;;;8.31;100.00
35908;BME280;22003;50.320;8.054;2023-04-16T09:43:11;100162.38;;;8.43;100.00
35908;BME280;22003;50.320;8.054;2023-04-16T09:45:53;100165.19;;;8.54;100.00
35908;BME280;22003;50.320;8.054;2023-04-16T09:48:32;100165.31;;;8.38;100.00
35908;BME280;22003;50.320;8.054;2023-04-16T09:50:58;100161.06;;;8.50;100.00
35908;BME280;22003;50.320;8.054;2023-04-16T09:53:28;100135.31;;;8.11;100.00
35908;BME280;22003;50.320;8.054;2023-04-16T09:56:01;100150.38;;;8.37;100.00
35908;BME280;22003;50.320;8.054;2023-04-16T09:58:26;100145.22;;;8.77;100.00
35908;BME280;22003;50.320;8.054;2023-04-16T10:03:29;100172.25;;;8.54;100.00
35908;BME280;22003;50.320;8.054;2023-04-16T10:05:58;100137.47;;;8.61;100.00
35908;BME280;22003;50.320;8.054;2023-04-16T10:08:23;100072.22;;;8.35;100.00
35908;BME280;22003;50.320;8.054;2023-04-16T10:10:49;100181.69;;;8.99;100.00
35908;BME280;22003;50.320;8.054;2023-04-16T10:13:14;100169.63;;;8.95;100.00
35908;BME280;22003;50.320;8.054;2023-04-16T10:15:42;100184.16;;;9.02;100.00
35908;BME280;22003;50.320;8.054;2023-04-16T10:18:07;100163.19;;;8.99;100.00
35908;BME280;22003;50.320;8.054;2023-04-16T10:20:32;100172.22;;;9.09;100.00
35908;BME280;22003;50.320;8.054;2023-04-16T10:22:58;100181.66;;;9.53;100.00
35908;BME280;22003;50.320;8.054;2023-04-16T10:25:24;100174.16;;;9.20;100.00
35908;BME280;22003;50.320;8.054;2023-04-16T10:27:49;100171.97;;;9.79;100.00
35908;BME280;22003;50.320;8.054;2023-04-16T10:30:15;100176.22;;;9.29;100.00
35908;BME280;22003;50.320;8.054;2023-04-16T10:32:42;100167.59;;;9.52;100.00
35908;BME280;22003;50.320;8.054;2023-04-16T10:35:08;100179.28;;;9.88;100.00
35908;BME280;22003;50.320;8.054;2023-04-16T10:37:36;100187.63;;;10.71;100.00
35908;BME280;22003;50.320;8.054;2023-04-16T10:40:20;100195.72;;;10.06;100.00
35908;BME280;22003;50.320;8.054;2023-04-16T10:42:56;100165.75;;;10.44;98.74
35908;BME280;22003;50.320;8.054;2023-04-16T10:45:32;100197.09;;;10.37;97.95
35908;BME280;22003;50.320;8.054;2023-04-16T10:48:04;100199.94;;;10.09;97.19
35908;BME280;22003;50.320;8.054;2023-04-16T10:50:34;100138.97;;;9.72;98.13
35908;BME280;22003;50.320;8.054;2023-04-16T10:53:19;100194.53;;;9.85;100.00
35908;BME280;22003;50.320;8.054;2023-04-16T10:58:32;100184.63;;;10.39;97.49
35908;BME280;22003;50.320;8.054;2023-04-16T11:00:59;100191.91;;;10.23;96.04
35908;BME280;22003;50.320;8.054;2023-04-16T11:03:32;100174.31;;;10.47;96.09
35908;BME280;22003;50.320;8.054;2023-04-16T11:06:20;100182.66;;;10.67;95.47
35908;BME280;22003;50.320;8.054;2023-04-16T11:08:50;100158.38;;;10.23;95.56
35908;BME280;22003;50.320;8.054;2023-04-16T11:11:15;100183.59;;;10.78;94.14
35908;BME280;22003;50.320;8.054;2023-04-16T11:13:42;100185.84;;;10.59;94.84
35908;BME280;22003;50.320;8.054;2023-04-16T11:16:10;100189.50;;;10.45;94.77
35908;BME280;22003;50.320;8.054;2023-04-16T11:18:37;100144.66;;;10.42;93.92
35908;BME280;22003;50.320;8.054;2023-04-16T11:21:07;100184.47;;;10.66;93.37
35908;BME280;22003;50.320;8.054;2023-04-16T11:23:44;100189.09;;;10.75;94.03
35908;BME280;22003;50.320;8.054;2023-04-16T11:26:19;100159.34;;;10.59;92.91
35908;BME280;22003;50.320;8.054;2023-04-16T11:28:45;100188.69;;;10.69;92.58
35908;BME280;22003;50.320;8.054;2023-04-16T11:31:10;100184.28;;;10.93;92.73
35908;BME280;22003;50.320;8.054;2023-04-16T11:33:36;100166.00;;;11.25;92.49
35908;BME280;22003;50.320;8.054;2023-04-16T11:36:02;100182.13;;;10.98;90.56
35908;BME280;22003;50.320;8.054;2023-04-16T11:38:35;100174.59;;;11.05;91.44
35908;BME280;22003;50.320;8.054;2023-04-16T11:41:01;100181.63;;;10.93;89.96
35908;BME280;22003;50.320;8.054;2023-04-16T11:43:26;100181.03;;;11.14;91.78
35908;BME280;22003;50.320;8.054;2023-04-16T11:45:55;100187.44;;;10.98;89.66
35908;BME280;22003;50.320;8.054;2023-04-16T11:48:21;100177.28;;;10.92;91.54
35908;BME280;22003;50.320;8.054;2023-04-16T11:50:54;100164.44;;;11.23;90.64
35908;BME280;22003;50.320;8.054;2023-04-16T11:53:20;100182.63;;;10.79;89.58
35908;BME280;22003;50.320;8.054;2023-04-16T11:55:45;100194.53;;;10.98;90.51
35908;BME280;22003;50.320;8.054;2023-04-16T11:58:12;100185.41;;;11.02;88.46
35908;BME280;22003;50.320;8.054;2023-04-16T12:00:37;100182.13;;;10.98;89.49
35908;BME280;22003;50.320;8.054;2023-04-16T12:03:02;100202.97;;;11.16;89.54
35908;BME280;22003;50.320;8.054;2023-04-16T12:05:32;100192.28;;;11.04;88.43
35908;BME280;22003;50.320;8.054;2023-04-16T12:08:08;100201.03;;;10.57;88.14
35908;BME280;22003;50.320;8.054;2023-04-16T12:10:36;100192.81;;;11.09;88.47
35908;BME280;22003;50.320;8.054;2023-04-16T12:13:13;100154.44;;;10.78;90.39
35908;BME280;22003;50.320;8.054;2023-04-16T12:15:49;100132.19;;;10.44;88.61
35908;BME280;22003;50.320;8.054;2023-04-16T12:18:15;100196.03;;;11.02;88.57
35908;BME280;22003;50.320;8.054;2023-04-16T12:20:42;100197.44;;;10.95;88.14
35908;BME280;22003;50.320;8.054;2023-04-16T12:23:08;100184.75;;;11.11;88.31
35908;BME280;22003;50.320;8.054;2023-04-16T12:25:33;100178.97;;;10.93;86.69
35908;BME280;22003;50.320;8.054;2023-04-16T12:27:59;100195.38;;;11.11;86.34
35908;BME280;22003;50.320;8.054;2023-04-16T12:30:25;100163.56;;;10.98;85.96
35908;BME280;22003;50.320;8.054;2023-04-16T12:35:36;100156.44;;;11.12;84.93
35908;BME280;22003;50.320;8.054;2023-04-16T12:38:01;100193.09;;;11.18;83.06
35908;BME280;22003;50.320;8.054;2023-04-16T12:40:27;100194.84;;;11.30;85.32
35908;BME280;22003;50.320;8.054;2023-04-16T12:42:52;100186.50;;;11.23;86.26
35908;BME280;22003;50.320;8.054;2023-04-16T12:45:18;100186.56;;;11.34;86.14
35908;BME280;22003;50.320;8.054;2023-04-16T12:47:44;100188.47;;;11.08;83.31
35908;BME280;22003;50.320;8.054;2023-04-16T12:50:09;100198.03;;;11.70;83.75
35908;BME280;22003;50.320;8.054;2023-04-16T12:52:35;100194.03;;;11.64;83.41
35908;BME280;22003;50.320;8.054;2023-04-16T12:55:01;100189.00;;;11.49;81.80
35908;BME280;22003;50.320;8.054;2023-04-16T12:57:26;100186.22;;;12.21;80.22
35908;BME280;22003;50.320;8.054;2023-04-16T12:59:56;100185.97;;;12.24;82.98
35908;BME280;22003;50.320;8.054;2023-04-16T13:02:22;100187.25;;;11.84;83.17
35908;BME280;22003;50.320;8.054;2023-04-16T13:04:48;100169.56;;;12.30;81.87
35908;BME280;22003;50.320;8.054;2023-04-16T13:07:14;100179.66;;;12.81;79.49
35908;BME280;22003;50.320;8.054;2023-04-16T13:09:39;100152.91;;;12.28;79.54
35908;BME280;22003;50.320;8.054;2023-04-16T13:12:05;100171.22;;;12.64;79.45
35908;BME280;22003;50.320;8.054;2023-04-16T13:14:31;100190.06;;;12.95;79.21
35908;BME280;22003;50.320;8.054;2023-04-16T13:16:56;100160.97;;;12.15;78.57
35908;BME280;22003;50.320;8.054;2023-04-16T13:19:21;100195.91;;;12.55;79.93
35908;BME280;22003;50.320;8.054;2023-04-16T13:21:46;100181.75;;;12.43;79.35
35908;BME280;22003;50.320;8.054;2023-04-16T13:24:12;100194.31;;;12.19;81.72
35908;BME280;22003;50.320;8.054;2023-04-16T13:26:37;100192.22;;;11.89;81.76
35908;BME280;22003;50.320;8.054;2023-04-16T13:29:02;100170.66;;;11.34;82.04
35908;BME280;22003;50.320;8.054;2023-04-16T13:31:28;100164.75;;;11.42;80.87
35908;BME280;22003;50.320;8.054;2023-04-16T13:33:53;100192.88;;;11.80;85.17
35908;BME280;22003;50.320;8.054;2023-04-16T13:36:18;100201.63;;;11.69;81.85
35908;BME280;22003;50.320;8.054;2023-04-16T13:38:43;100182.56;;;11.64;80.96
35908;BME280;22003;50.320;8.054;2023-04-16T13:41:09;100198.56;;;11.51;82.91
35908;BME280;22003;50.320;8.054;2023-04-16T13:43:35;100209.63;;;11.80;84.71
35908;BME280;22003;50.320;8.054;2023-04-16T13:46:01;100200.16;;;11.65;83.19
35908;BME280;22003;50.320;8.054;2023-04-16T13:48:27;100182.56;;;11.64;81.49
35908;BME280;22003;50.320;8.054;2023-04-16T13:50:52;100170.53;;;11.36;82.24
35908;BME280;22003;50.320;8.054;2023-04-16T13:53:17;100191.63;;;11.37;81.34
35908;BME280;22003;50.320;8.054;2023-04-16T13:55:43;100150.66;;;11.42;82.15
35908;BME280;22003;50.320;8.054;2023-04-16T13:58:08;100201.59;;;11.82;82.88
35908;BME280;22003;50.320;8.054;2023-04-16T14:00:33;100187.16;;;11.97;82.56
35908;BME280;22003;50.320;8.054;2023-04-16T14:02:59;100186.19;;;12.09;81.85
35908;BME280;22003;50.320;8.054;2023-04-16T14:05:24;100195.03;;;12.21;80.66
35908;BME280;22003;50.320;8.054;2023-04-16T14:07:49;100197.81;;;11.73;80.87
35908;BME280;22003;50.320;8.054;2023-04-16T14:10:15;100202.03;;;11.76;79.93
35908;BME280;22003;50.320;8.054;2023-04-16T14:12:42;100203.97;;;11.74;78.70
35908;BME280;22003;50.320;8.054;2023-04-16T14:15:07;100189.19;;;11.58;79.57
35908;BME280;22003;50.320;8.054;2023-04-16T14:17:34;100188.84;;;11.63;78.10
35908;BME280;22003;50.320;8.054;2023-04-16T14:19:59;100194.38;;;11.84;79.50
35908;BME280;22003;50.320;8.054;2023-04-16T14:22:24;100189.09;;;11.71;77.98
35908;BME280;22003;50.320;8.054;2023-04-16T14:24:49;100188.88;;;11.74;79.68
35908;BME280;22003;50.320;8.054;2023-04-16T14:27:15;100196.59;;;11.66;80.52
35908;BME280;22003;50.320;8.054;2023-04-16T14:29:41;100190.22;;;11.45;79.45
35908;BME280;22003;50.320;8.054;2023-04-16T14:32:06;100195.25;;;11.36;80.83
35908;BME280;22003;50.320;8.054;2023-04-16T14:34:31;100200.88;;;11.32;80.86
35908;BME280;22003;50.320;8.054;2023-04-16T14:36:57;100197.56;;;11.17;80.51
35908;BME280;22003;50.320;8.054;2023-04-16T14:39:23;100207.28;;;11.05;80.29
35908;BME280;22003;50.320;8.054;2023-04-16T14:41:48;100206.75;;;11.00;82.33
35908;BME280;22003;50.320;8.054;2023-04-16T14:44:14;100177.22;;;10.81;82.62
35908;BME280;22003;50.320;8.054;2023-04-16T14:46:40;100147.59;;;10.63;84.16
35908;BME280;22003;50.320;8.054;2023-04-16T14:49:05;100179.88;;;10.81;83.87
35908;BME280;22003;50.320;8.054;2023-04-16T14:51:30;100207.06;;;10.96;81.82
35908;BME280;22003;50.320;8.054;2023-04-16T14:53:56;100180.16;;;10.89;81.36
35908;BME280;22003;50.320;8.054;2023-04-16T14:56:21;100211.41;;;10.97;80.76
35908;BME280;22003;50.320;8.054;2023-04-16T14:58:46;100201.59;;;10.86;81.16
35908;BME280;22003;50.320;8.054;2023-04-16T15:01:12;100202.81;;;10.93;80.54
35908;BME280;22003;50.320;8.054;2023-04-16T15:03:38;100178.38;;;10.77;80.20
35908;BME280;22003;50.320;8.054;2023-04-16T15:06:04;100209.41;;;11.00;79.55
35908;BME280;22003;50.320;8.054;2023-04-16T15:08:29;100169.81;;;10.73;80.25
35908;BME280;22003;50.320;8.054;2023-04-16T15:10:55;100183.47;;;10.80;80.94
35908;BME280;22003;50.320;8.054;2023-04-16T15:13:20;100203.78;;;10.92;80.27
35908;BME280;22003;50.320;8.054;2023-04-16T15:15:45;100197.72;;;11.03;80.99
35908;BME280;22003;50.320;8.054;2023-04-16T15:18:11;100212.06;;;11.00;81.50
35908;BME280;22003;50.320;8.054;2023-04-16T15:20:36;100211.28;;;10.98;81.53
35908;BME280;22003;50.320;8.054;2023-04-16T15:23:01;100190.97;;;10.86;81.41
35908;BME280;22003;50.320;8.054;2023-04-16T15:25:26;100210.06;;;10.91;81.05
35908;BME280;22003;50.320;8.054;2023-04-16T15:27:52;100164.03;;;10.55;82.45
35908;BME280;22003;50.320;8.054;2023-04-16T15:30:17;100210.38;;;10.87;83.33
35908;BME280;22003;50.320;8.054;2023-04-16T15:32:43;100207.84;;;10.85;82.47
35908;BME280;22003;50.320;8.054;2023-04-16T15:35:09;100197.69;;;10.79;82.65
35908;BME280;22003;50.320;8.054;2023-04-16T15:37:34;100206.75;;;10.88;81.27
35908;BME280;22003;50.320;8.054;2023-04-16T15:39:59;100220.88;;;10.88;81.17
35908;BME280;22003;50.320;8.054;2023-04-16T15:42:25;100224.28;;;10.90;81.92
35908;BME280;22003;50.320;8.054;2023-04-16T15:44:50;100221.50;;;10.92;81.62
35908;BME280;22003;50.320;8.054;2023-04-16T15:47:15;100176.41;;;10.68;82.54
35908;BME280;22003;50.320;8.054;2023-04-16T15:49:41;100216.94;;;10.94;82.08
35908;BME280;22003;50.320;8.054;2023-04-16T15:52:06;100193.34;;;10.78;82.27
35908;BME280;22003;50.320;8.054;2023-04-16T15:54:32;100178.22;;;10.67;82.09
35908;BME280;22003;50.320;8.054;2023-04-16T15:56:57;100225.31;;;10.88;82.31
35908;BME280;22003;50.320;8.054;2023-04-16T15:59:25;100226.41;;;10.85;83.13
35908;BME280;22003;50.320;8.054;2023-04-16T16:01:50;100227.97;;;10.88;84.14
35908;BME280;22003;50.320;8.054;2023-04-16T16:04:16;100220.69;;;10.78;84.02
35908;BME280;22003;50.320;8.054;2023-04-16T16:06:41;100222.81;;;10.73;83.65
35908;BME280;22003;50.320;8.054;2023-04-16T16:09:06;100222.50;;;10.65;85.16
35908;BME280;22003;50.320;8.054;2023-04-16T16:11:32;100220.09;;;10.62;84.33
35908;BME280;22003;50.320;8.054;2023-04-16T16:13:57;100193.81;;;10.46;84.60
35908;BME280;22003;50.320;8.054;2023-04-16T16:16:25;100221.13;;;10.60;84.89
35908;BME280;22003;50.320;8.054;2023-04-16T16:18:51;100204.63;;;10.43;84.20
35908;BME280;22003;50.320;8.054;2023-04-16T16:21:16;100233.38;;;10.49;85.64
35908;BME280;22003;50.320;8.054;2023-04-16T16:23:41;100240.53;;;10.47;86.12
35908;BME280;22003;50.320;8.054;2023-04-16T16:26:07;100211.00;;;10.28;85.69
35908;BME280;22003;50.320;8.054;2023-04-16T16:28:32;100243.22;;;10.35;87.07
35908;BME280;22003;50.320;8.054;2023-04-16T16:30:57;100239.59;;;10.36;85.97
35908;BME280;22003;50.320;8.054;2023-04-16T16:33:25;100224.44;;;10.25;86.45
35908;BME280;22003;50.320;8.054;2023-04-16T16:35:51;100244.38;;;10.30;86.79
35908;BME280;22003;50.320;8.054;2023-04-16T16:38:17;100240.34;;;10.25;87.19
35908;BME280;22003;50.320;8.054;2023-04-16T16:40:42;100242.13;;;10.24;87.34
35908;BME280;22003;50.320;8.054;2023-04-16T16:43:07;100241.31;;;10.24;88.01
35908;BME280;22003;50.320;8.054;2023-04-16T16:45:32;100204.09;;;10.00;87.52
35908;BME280;22003;50.320;8.054;2023-04-16T16:47:58;100243.84;;;10.25;88.38
35908;BME280;22003;50.320;8.054;2023-04-16T16:50:24;100234.94;;;10.26;88.25
35908;BME280;22003;50.320;8.054;2023-04-16T16:52:49;100208.84;;;9.95;86.46
35908;BME280;22003;50.320;8.054;2023-04-16T16:55:15;100247.59;;;10.21;85.72
35908;BME280;22003;50.320;8.054;2023-04-16T16:57:40;100220.47;;;9.92;86.49